createdAt,value
2022-11-06T00:01:58.663Z,7.30
2022-11-06T00:04:29.505Z,8.30
2022-11-06T00:06:56.326Z,9.17
2022-11-06T00:09:24.083Z,8.30
2022-11-06T00:11:52.836Z,8.50
2022-11-06T00:14:21.970Z,8.47
2022-11-06T00:16:49.732Z,8.50
2022-11-06T00:19:18.322Z,8.13
2022-11-06T00:21:46.436Z,8.10
2022-11-06T00:24:15.483Z,8.80
2022-11-06T00:26:43.909Z,7.80
2022-11-06T00:29:14.757Z,7.37
2022-11-06T00:31:43.941Z,7.47
2022-11-06T00:34:11.970Z,7.20
2022-11-06T00:36:40.811Z,7.23
2022-11-06T00:39:08.592Z,6.87
2022-11-06T00:41:36.401Z,6.40
2022-11-06T00:44:04.488Z,6.07
2022-11-06T00:46:32.531Z,6.77
2022-11-06T00:49:01.641Z,6.50
2022-11-06T00:51:31.276Z,6.70
2022-11-06T00:54:00.695Z,7.10
2022-11-06T00:56:29.107Z,7.17
2022-11-06T00:58:59.439Z,7.40
2022-11-06T01:01:29.497Z,7.37
2022-11-06T01:03:59.316Z,8.53
2022-11-06T01:06:31.093Z,13.23
2022-11-06T01:08:59.440Z,8.47
2022-11-06T01:11:46.560Z,6.50
2022-11-06T01:14:19.110Z,6.20
2022-11-06T01:16:46.890Z,7.00
2022-11-06T01:19:16.123Z,6.23
2022-11-06T01:21:47.297Z,7.07
2022-11-06T01:24:17.713Z,7.50
2022-11-06T01:27:05.331Z,8.87
2022-11-06T01:29:33.734Z,7.43
2022-11-06T01:32:01.606Z,7.80
2022-11-06T01:34:29.520Z,7.40
2022-11-06T01:36:58.667Z,7.10
2022-11-06T01:39:26.443Z,7.20
2022-11-06T01:41:54.726Z,6.97
2022-11-06T01:44:59.868Z,7.10
2022-11-06T01:47:30.280Z,7.10
2022-11-06T01:50:02.160Z,7.20
2022-11-06T01:52:32.924Z,7.47
2022-11-06T01:55:07.713Z,7.20
2022-11-06T01:57:35.570Z,7.07
2022-11-06T02:00:03.918Z,7.00
2022-11-06T02:02:32.016Z,6.83
2022-11-06T02:04:59.927Z,6.93
2022-11-06T02:07:27.775Z,7.73
2022-11-06T02:09:57.069Z,7.93
2022-11-06T02:12:35.156Z,7.37
2022-11-06T02:15:15.183Z,7.23
2022-11-06T02:17:57.081Z,7.00
2022-11-06T02:20:36.980Z,6.87
2022-11-06T02:23:27.578Z,7.50
2022-11-06T02:26:07.892Z,6.40
2022-11-06T02:28:42.825Z,7.60
2022-11-06T02:31:14.339Z,8.23
2022-11-06T02:33:48.255Z,7.50
2022-11-06T02:36:19.927Z,8.53
2022-11-06T02:38:52.159Z,8.17
2022-11-06T02:41:23.860Z,9.20
2022-11-06T02:43:56.534Z,7.53
2022-11-06T02:46:28.306Z,7.00
2022-11-06T02:49:01.486Z,6.97
2022-11-06T02:51:32.878Z,6.83
2022-11-06T02:54:03.514Z,7.53
2022-11-06T02:56:38.030Z,6.17
2022-11-06T02:59:11.440Z,6.43
2022-11-06T03:01:43.787Z,6.43
2022-11-06T03:04:17.405Z,6.77
2022-11-06T03:06:48.969Z,5.80
2022-11-06T03:09:20.224Z,6.60
2022-11-06T03:11:52.880Z,6.80
2022-11-06T03:14:27.762Z,6.67
2022-11-06T03:17:00.472Z,6.47
2022-11-06T03:19:34.963Z,6.33
2022-11-06T03:22:09.612Z,5.70
2022-11-06T03:24:44.699Z,6.00
2022-11-06T03:27:16.862Z,6.47
2022-11-06T03:29:49.728Z,6.37
2022-11-06T03:32:22.884Z,6.47
2022-11-06T03:34:54.385Z,7.13
2022-11-06T03:37:27.462Z,8.60
2022-11-06T03:39:59.869Z,7.77
2022-11-06T03:42:30.336Z,8.67
2022-11-06T03:45:04.051Z,9.60
2022-11-06T03:47:35.224Z,8.17
2022-11-06T03:50:11.817Z,8.13
2022-11-06T03:52:44.060Z,6.77
2022-11-06T03:55:17.639Z,5.67
2022-11-06T03:57:48.857Z,5.13
2022-11-06T04:00:20.335Z,5.87
2022-11-06T04:02:51.663Z,5.80
2022-11-06T04:05:24.249Z,5.87
2022-11-06T04:08:10.668Z,5.57
2022-11-06T04:10:59.444Z,5.83
2022-11-06T04:13:48.532Z,8.60
2022-11-06T04:16:19.034Z,5.73
2022-11-06T04:18:46.797Z,7.27
2022-11-06T04:21:26.171Z,7.63
2022-11-06T04:24:24.280Z,6.83
2022-11-06T04:27:04.480Z,6.70
2022-11-06T04:29:44.342Z,5.10
2022-11-06T04:32:20.415Z,4.37
2022-11-06T04:35:01.454Z,4.90
2022-11-06T04:37:34.691Z,4.37
2022-11-06T04:40:09.591Z,4.67
2022-11-06T04:42:43.252Z,4.53
2022-11-06T04:45:15.636Z,6.20
2022-11-06T04:47:46.235Z,17.80
2022-11-06T04:50:16.444Z,14.53
2022-11-06T04:52:46.069Z,6.10
2022-11-06T04:55:14.043Z,6.97
2022-11-06T04:57:41.806Z,5.77
2022-11-06T05:00:15.892Z,5.77
2022-11-06T05:02:45.136Z,6.50
2022-11-06T05:05:12.987Z,6.90
2022-11-06T05:07:40.731Z,5.97
2022-11-06T05:10:09.218Z,6.10
2022-11-06T05:12:37.047Z,5.40
2022-11-06T05:15:05.269Z,5.80
2022-11-06T05:17:36.521Z,6.50
2022-11-06T05:20:07.118Z,5.97
2022-11-06T05:22:52.366Z,6.47
2022-11-06T05:25:20.162Z,5.90
2022-11-06T05:27:47.933Z,6.17
2022-11-06T05:30:15.816Z,7.40
2022-11-06T05:32:43.585Z,8.73
2022-11-06T05:35:12.704Z,6.07
2022-11-06T05:37:40.459Z,5.50
2022-11-06T05:40:09.378Z,5.30
2022-11-06T05:42:38.694Z,5.57
2022-11-06T05:45:07.681Z,5.77
2022-11-06T05:47:35.968Z,7.60
2022-11-06T05:50:03.832Z,5.43
2022-11-06T05:52:33.099Z,5.63
2022-11-06T05:55:00.858Z,5.63
2022-11-06T05:57:28.719Z,6.07
2022-11-06T05:59:56.455Z,5.57
2022-11-06T06:02:24.365Z,5.80
2022-11-06T06:04:52.293Z,5.60
2022-11-06T06:07:20.064Z,5.93
2022-11-06T06:09:49.269Z,7.53
2022-11-06T06:12:17.125Z,13.03
2022-11-06T06:14:50.111Z,8.23
2022-11-06T06:17:18.239Z,6.90
2022-11-06T06:19:46.009Z,8.40
2022-11-06T06:22:13.764Z,8.10
2022-11-06T06:24:42.066Z,8.23
2022-11-06T06:27:11.447Z,7.57
2022-11-06T06:29:39.211Z,8.17
2022-11-06T06:32:07.414Z,8.63
2022-11-06T06:34:35.225Z,9.53
2022-11-06T06:37:03.706Z,9.30
2022-11-06T06:39:31.833Z,8.80
2022-11-06T06:41:59.784Z,8.80
2022-11-06T06:44:28.969Z,9.30
2022-11-06T06:46:56.755Z,8.60
2022-11-06T06:49:24.570Z,9.70
2022-11-06T06:51:52.401Z,9.47
2022-11-06T06:54:20.176Z,14.53
2022-11-06T06:56:49.194Z,13.43
2022-11-06T06:59:17.078Z,10.47
2022-11-06T07:01:46.289Z,11.23
2022-11-06T07:04:14.128Z,7.83
2022-11-06T07:06:41.909Z,8.80
2022-11-06T07:09:09.699Z,7.93
2022-11-06T07:11:37.483Z,8.47
2022-11-06T07:14:05.381Z,14.53
2022-11-06T07:16:33.333Z,15.33
2022-11-06T07:19:02.787Z,12.40
2022-11-06T07:21:30.573Z,12.43
2022-11-06T07:23:58.323Z,13.27
2022-11-06T07:26:26.069Z,11.67
2022-11-06T07:28:53.820Z,8.73
2022-11-06T07:31:21.563Z,6.90
2022-11-06T07:33:49.547Z,5.37
2022-11-06T07:36:18.735Z,8.10
2022-11-06T07:38:46.498Z,7.97
2022-11-06T07:41:15.889Z,6.90
2022-11-06T07:43:44.367Z,15.27
2022-11-06T07:46:14.107Z,13.83
2022-11-06T07:48:41.932Z,7.80
2022-11-06T07:51:11.726Z,6.40
2022-11-06T07:53:41.375Z,7.20
2022-11-06T07:56:09.811Z,7.07
2022-11-06T07:58:38.575Z,6.87
2022-11-06T08:01:07.202Z,7.70
2022-11-06T08:03:35.034Z,7.43
2022-11-06T08:06:05.067Z,7.60
2022-11-06T08:08:32.896Z,18.40
2022-11-06T08:11:04.512Z,8.07
2022-11-06T08:13:33.839Z,8.57
2022-11-06T08:16:04.896Z,17.53
2022-11-06T08:18:32.711Z,6.27
2022-11-06T08:21:00.781Z,7.43
2022-11-06T08:23:29.087Z,9.00
2022-11-06T08:25:57.829Z,8.23
2022-11-06T08:28:27.663Z,10.70
2022-11-06T08:30:55.852Z,9.77
2022-11-06T08:33:25.070Z,9.93
2022-11-06T08:35:52.880Z,8.27
2022-11-06T08:38:20.642Z,7.67
2022-11-06T08:40:53.362Z,8.83
2022-11-06T08:43:24.081Z,9.57
2022-11-06T08:45:53.650Z,7.73
2022-11-06T08:48:21.495Z,7.80
2022-11-06T08:50:49.586Z,7.07
2022-11-06T08:53:18.039Z,7.20
2022-11-06T08:55:46.076Z,6.77
2022-11-06T08:58:14.487Z,6.03
2022-11-06T09:00:42.463Z,6.50
2022-11-06T09:03:17.923Z,6.70
2022-11-06T09:05:46.269Z,5.77
2022-11-06T09:08:14.767Z,5.63
2022-11-06T09:10:43.631Z,5.43
2022-11-06T09:13:12.153Z,5.40
2022-11-06T09:15:40.806Z,5.13
2022-11-06T09:18:08.938Z,3.83
2022-11-06T09:20:38.512Z,4.63
2022-11-06T09:23:07.933Z,5.00
2022-11-06T09:25:35.889Z,4.80
2022-11-06T09:28:03.668Z,4.63
2022-11-06T09:30:32.695Z,4.13
2022-11-06T09:33:02.961Z,4.20
2022-11-06T09:35:32.504Z,4.00
2022-11-06T09:38:06.435Z,4.40
2022-11-06T09:40:37.208Z,4.23
2022-11-06T09:43:27.348Z,4.47
2022-11-06T09:46:09.648Z,4.90
2022-11-06T09:48:42.959Z,5.20
2022-11-06T09:51:18.149Z,4.80
2022-11-06T09:53:52.580Z,4.60
2022-11-06T09:56:25.218Z,5.07
2022-11-06T09:58:54.670Z,4.93
2022-11-06T10:01:27.355Z,5.07
2022-11-06T10:03:59.728Z,5.80
2022-11-06T10:06:29.247Z,4.37
2022-11-06T10:09:02.104Z,3.97
2022-11-06T10:11:46.397Z,4.27
2022-11-06T10:14:28.479Z,4.33
2022-11-06T10:17:02.509Z,4.50
2022-11-06T10:19:39.578Z,5.40
2022-11-06T10:22:15.379Z,5.30
2022-11-06T10:24:47.045Z,5.70
2022-11-06T10:27:17.815Z,5.43
2022-11-06T10:30:03.911Z,4.30
2022-11-06T10:33:00.976Z,4.73
2022-11-06T10:35:35.829Z,4.27
2022-11-06T10:38:12.177Z,3.77
2022-11-06T10:40:45.697Z,4.20
2022-11-06T10:43:25.321Z,3.90
2022-11-06T10:45:59.988Z,3.67
2022-11-06T10:48:34.284Z,3.90
2022-11-06T10:51:17.006Z,3.80
2022-11-06T10:53:53.347Z,4.50
2022-11-06T10:56:32.981Z,3.60
2022-11-06T10:59:00.877Z,4.40
2022-11-06T11:01:29.327Z,3.27
2022-11-06T11:03:57.273Z,3.67
2022-11-06T11:06:25.098Z,3.60
2022-11-06T11:08:53.475Z,3.93
2022-11-06T11:11:25.748Z,4.90
2022-11-06T11:14:15.155Z,6.03
2022-11-06T11:16:45.623Z,5.30
2022-11-06T11:19:24.285Z,4.00
2022-11-06T11:21:57.620Z,3.93
2022-11-06T11:24:26.079Z,4.30
2022-11-06T11:26:58.327Z,4.20
2022-11-06T11:29:28.271Z,4.43
2022-11-06T11:31:59.781Z,4.40
2022-11-06T11:34:29.536Z,4.07
2022-11-06T11:37:00.952Z,4.30
2022-11-06T11:39:31.712Z,4.10
2022-11-06T11:42:23.912Z,4.40
2022-11-06T11:45:13.416Z,3.53
2022-11-06T11:47:42.886Z,4.30
2022-11-06T11:50:29.556Z,4.53
2022-11-06T11:53:07.121Z,4.90
2022-11-06T11:55:40.802Z,2.73
2022-11-06T11:58:21.827Z,2.77
2022-11-06T12:00:53.779Z,2.80
2022-11-06T12:03:23.576Z,4.10
2022-11-06T12:05:52.707Z,3.20
2022-11-06T12:08:26.227Z,2.70
2022-11-06T12:10:54.164Z,3.00
2022-11-06T12:13:25.359Z,2.77
2022-11-06T12:15:58.497Z,2.70
2022-11-06T12:18:30.278Z,2.43
2022-11-06T12:21:02.447Z,1.97
2022-11-06T12:23:37.331Z,1.60
2022-11-06T12:26:10.278Z,2.97
2022-11-06T12:28:42.598Z,3.50
2022-11-06T12:31:19.629Z,3.50
2022-11-06T12:34:06.942Z,3.50
2022-11-06T12:36:43.070Z,4.70
2022-11-06T12:39:14.853Z,3.67
2022-11-06T12:41:45.876Z,3.00
2022-11-06T12:44:16.963Z,3.03
2022-11-06T12:46:53.116Z,4.07
2022-11-06T12:49:52.246Z,4.60
2022-11-06T12:52:38.087Z,3.80
2022-11-06T12:55:15.735Z,3.83
2022-11-06T12:57:58.013Z,5.33
2022-11-06T13:00:32.448Z,3.03
2022-11-06T13:03:20.327Z,2.53
2022-11-06T13:05:56.366Z,3.23
2022-11-06T13:08:36.686Z,3.27
2022-11-06T13:11:14.998Z,3.47
2022-11-06T13:14:00.614Z,3.80
2022-11-06T13:16:35.967Z,2.47
2022-11-06T13:19:09.961Z,4.33
2022-11-06T13:21:58.517Z,2.20
2022-11-06T13:24:34.629Z,5.33
2022-11-06T13:27:09.444Z,7.33
2022-11-06T13:29:38.539Z,4.90
2022-11-06T13:32:14.408Z,4.60
2022-11-06T13:34:43.791Z,5.63
2022-11-06T13:37:17.305Z,4.70
2022-11-06T13:39:49.248Z,4.03
2022-11-06T13:42:24.197Z,4.30
2022-11-06T13:44:52.662Z,4.10
2022-11-06T13:47:27.844Z,4.73
2022-11-06T13:50:05.298Z,4.97
2022-11-06T13:52:39.501Z,4.60
2022-11-06T13:55:14.930Z,4.50
2022-11-06T13:58:17.509Z,4.83
2022-11-06T14:00:58.837Z,4.03
2022-11-06T14:03:53.720Z,3.70
2022-11-06T14:06:23.515Z,4.07
2022-11-06T14:08:53.492Z,4.53
2022-11-06T14:11:27.751Z,4.17
2022-11-06T14:14:01.257Z,4.57
2022-11-06T14:16:31.900Z,4.27
2022-11-06T14:19:04.920Z,4.27
2022-11-06T14:21:51.791Z,4.00
2022-11-06T14:24:31.887Z,3.93
2022-11-06T14:27:01.273Z,4.17
2022-11-06T14:29:57.313Z,3.73
2022-11-06T14:32:45.489Z,4.90
2022-11-06T14:35:49.487Z,4.93
2022-11-06T14:38:20.701Z,4.17
2022-11-06T14:40:48.524Z,5.63
2022-11-06T14:43:20.121Z,4.17
2022-11-06T14:45:52.864Z,3.90
2022-11-06T14:48:28.987Z,4.37
2022-11-06T14:50:59.855Z,4.17
2022-11-06T14:53:30.526Z,2.53
2022-11-06T14:56:00.456Z,2.67
2022-11-06T14:58:32.366Z,3.60
2022-11-06T15:01:03.361Z,6.53
2022-11-06T15:03:38.964Z,5.53
2022-11-06T15:06:22.609Z,7.77
2022-11-06T15:08:55.603Z,7.20
2022-11-06T15:11:52.507Z,6.70
2022-11-06T15:15:00.132Z,5.20
2022-11-06T15:17:32.636Z,7.03
2022-11-06T15:20:24.364Z,5.17
2022-11-06T15:23:16.281Z,1.30
2022-11-06T15:25:57.156Z,1.43
2022-11-06T15:28:29.389Z,0.80
2022-11-06T15:31:01.517Z,2.07
2022-11-06T15:33:34.946Z,3.47
2022-11-06T15:36:06.260Z,2.20
2022-11-06T15:38:40.710Z,1.40
2022-11-06T15:41:14.736Z,1.90
2022-11-06T15:43:45.861Z,1.60
2022-11-06T15:46:21.223Z,1.20
2022-11-06T15:48:50.303Z,2.37
2022-11-06T15:51:25.287Z,2.30
2022-11-06T15:53:54.755Z,2.67
2022-11-06T15:56:26.128Z,1.80
2022-11-06T15:59:09.273Z,1.73
2022-11-06T16:01:37.718Z,1.70
2022-11-06T16:04:15.666Z,2.13
2022-11-06T16:06:45.462Z,6.03
2022-11-06T16:09:19.118Z,6.50
2022-11-06T16:11:48.529Z,3.90
2022-11-06T16:14:16.584Z,4.23
2022-11-06T16:16:47.651Z,3.90
2022-11-06T16:19:27.233Z,2.20
2022-11-06T16:21:58.521Z,2.07
2022-11-06T16:24:31.712Z,1.93
2022-11-06T16:27:00.166Z,2.10
2022-11-06T16:29:29.775Z,4.00
2022-11-06T16:32:01.947Z,2.97
2022-11-06T16:34:39.819Z,2.10
2022-11-06T16:37:29.590Z,2.40
2022-11-06T16:39:59.949Z,2.47
2022-11-06T16:42:30.163Z,1.90
2022-11-06T16:45:17.560Z,5.20
2022-11-06T16:48:23.740Z,2.27
2022-11-06T16:50:54.682Z,3.90
2022-11-06T16:53:25.100Z,3.47
2022-11-06T16:55:58.590Z,3.10
2022-11-06T16:58:28.252Z,4.00
2022-11-06T17:01:01.460Z,2.07
2022-11-06T17:03:35.119Z,2.80
2022-11-06T17:06:03.217Z,1.90
2022-11-06T17:08:35.243Z,1.77
2022-11-06T17:11:21.647Z,1.50
2022-11-06T17:13:50.976Z,1.87
2022-11-06T17:16:21.965Z,1.30
2022-11-06T17:18:50.301Z,1.30
2022-11-06T17:21:20.699Z,1.07
2022-11-06T17:23:49.722Z,1.60
2022-11-06T17:26:22.535Z,1.63
2022-11-06T17:28:50.344Z,1.30
2022-11-06T17:31:19.807Z,1.50
2022-11-06T17:33:48.374Z,1.63
2022-11-06T17:36:18.934Z,2.20
2022-11-06T17:38:47.951Z,3.40
2022-11-06T17:41:29.497Z,3.50
2022-11-06T17:43:59.320Z,8.57
2022-11-06T17:46:28.459Z,11.33
2022-11-06T17:48:56.904Z,3.17
2022-11-06T17:51:42.242Z,3.00
2022-11-06T17:54:10.499Z,3.70
2022-11-06T17:56:38.812Z,3.37
2022-11-06T17:59:09.693Z,2.90
2022-11-06T18:01:37.982Z,3.37
2022-11-06T18:04:06.920Z,3.50
2022-11-06T18:06:34.708Z,2.77
2022-11-06T18:09:04.227Z,3.30
2022-11-06T18:11:32.024Z,3.87
2022-11-06T18:14:00.019Z,3.10
2022-11-06T18:16:32.165Z,2.50
2022-11-06T18:19:00.209Z,3.03
2022-11-06T18:21:28.266Z,3.10
2022-11-06T18:23:56.037Z,2.63
2022-11-06T18:26:23.786Z,2.00
2022-11-06T18:28:51.955Z,1.50
2022-11-06T18:31:20.456Z,1.20
2022-11-06T18:33:49.589Z,1.23
2022-11-06T18:36:17.485Z,1.07
2022-11-06T18:38:45.243Z,1.33
2022-11-06T18:41:15.122Z,2.43
2022-11-06T18:43:43.090Z,0.83
2022-11-06T18:46:12.890Z,1.53
2022-11-06T18:48:41.141Z,3.87
2022-11-06T18:51:11.672Z,2.67
2022-11-06T18:53:40.463Z,2.00
2022-11-06T18:56:10.747Z,2.23
2022-11-06T18:58:38.804Z,1.80
2022-11-06T19:01:07.820Z,1.40
2022-11-06T19:03:35.802Z,3.20
2022-11-06T19:06:04.833Z,1.63
2022-11-06T19:08:34.112Z,1.50
2022-11-06T19:11:03.665Z,2.30
2022-11-06T19:13:31.689Z,2.10
2022-11-06T19:16:00.205Z,1.57
2022-11-06T19:18:29.658Z,1.27
2022-11-06T19:20:58.114Z,1.40
2022-11-06T19:23:26.485Z,1.20
2022-11-06T19:26:04.545Z,1.43
2022-11-06T19:28:44.359Z,1.27
2022-11-06T19:31:13.002Z,1.23
2022-11-06T19:33:40.860Z,1.03
2022-11-06T19:36:09.368Z,1.10
2022-11-06T19:38:37.121Z,1.30
2022-11-06T19:41:06.555Z,1.20
2022-11-06T19:43:38.095Z,1.40
2022-11-06T19:46:06.813Z,1.70
2022-11-06T19:48:35.429Z,1.23
2022-11-06T19:51:03.941Z,1.57
2022-11-06T19:53:31.693Z,1.40
2022-11-06T19:56:01.536Z,2.13
2022-11-06T19:58:30.661Z,1.90
2022-11-06T20:00:58.455Z,2.00
2022-11-06T20:03:26.267Z,2.30
2022-11-06T20:05:54.896Z,1.53
2022-11-06T20:08:22.863Z,1.77
2022-11-06T20:10:50.677Z,1.40
2022-11-06T20:13:18.442Z,1.50
2022-11-06T20:15:47.511Z,1.40
2022-11-06T20:18:15.293Z,1.40
2022-11-06T20:20:43.052Z,1.77
2022-11-06T20:23:11.197Z,1.60
2022-11-06T20:25:39.076Z,1.27
2022-11-06T20:28:06.848Z,1.20
2022-11-06T20:30:34.624Z,1.47
2022-11-06T20:33:03.832Z,1.10
2022-11-06T20:35:31.576Z,1.40
2022-11-06T20:37:59.403Z,1.40
2022-11-06T20:40:31.836Z,1.10
2022-11-06T20:43:02.250Z,1.30
2022-11-06T20:45:30.014Z,1.30
2022-11-06T20:47:57.830Z,2.60
2022-11-06T20:50:26.932Z,1.10
2022-11-06T20:52:54.673Z,2.20
2022-11-06T20:55:22.415Z,2.37
2022-11-06T20:57:50.159Z,2.93
2022-11-06T21:00:19.345Z,1.30
2022-11-06T21:02:47.437Z,1.00
2022-11-06T21:05:15.564Z,1.53
2022-11-06T21:07:44.717Z,1.67
2022-11-06T21:10:12.534Z,1.27
2022-11-06T21:12:40.301Z,1.17
2022-11-06T21:15:09.053Z,1.07
2022-11-06T21:17:36.817Z,1.17
2022-11-06T21:20:05.061Z,1.00
2022-11-06T21:22:32.910Z,1.03
2022-11-06T21:25:02.063Z,0.90
2022-11-06T21:27:29.811Z,0.80
2022-11-06T21:29:58.215Z,1.00
2022-11-06T21:32:26.361Z,1.20
2022-11-06T21:34:54.122Z,1.10
2022-11-06T21:37:32.629Z,0.80
2022-11-06T21:40:01.790Z,0.90
2022-11-06T21:42:29.631Z,0.87
2022-11-06T21:44:57.403Z,0.73
2022-11-06T21:47:25.166Z,0.90
2022-11-06T21:49:54.761Z,0.70
2022-11-06T21:52:40.638Z,0.60
2022-11-06T21:55:28.228Z,0.70
2022-11-06T21:57:56.060Z,0.83
2022-11-06T22:00:23.900Z,0.70
2022-11-06T22:02:51.877Z,0.77
2022-11-06T22:05:19.830Z,0.80
2022-11-06T22:07:47.621Z,0.73
2022-11-06T22:10:16.801Z,0.97
2022-11-06T22:12:44.559Z,1.20
2022-11-06T22:15:12.334Z,0.83
2022-11-06T22:17:40.201Z,0.70
2022-11-06T22:20:08.955Z,0.90
2022-11-06T22:22:36.717Z,1.00
2022-11-06T22:25:05.019Z,0.70
2022-11-06T22:27:39.645Z,0.83
2022-11-06T22:30:09.783Z,0.97
2022-11-06T22:32:37.688Z,0.83
2022-11-06T22:35:06.051Z,0.80
2022-11-06T22:37:33.801Z,0.87
2022-11-06T22:40:01.608Z,0.90
2022-11-06T22:42:29.353Z,0.73
2022-11-06T22:44:58.432Z,0.90
2022-11-06T22:47:26.179Z,0.93
2022-11-06T22:49:54.050Z,0.80
2022-11-06T22:52:21.814Z,1.13
2022-11-06T22:54:49.568Z,0.90
2022-11-06T22:57:17.299Z,0.97
2022-11-06T22:59:45.033Z,0.70
2022-11-06T23:02:14.223Z,1.00
2022-11-06T23:04:42.210Z,0.80
2022-11-06T23:07:09.949Z,0.97
2022-11-06T23:09:37.751Z,0.90
2022-11-06T23:12:05.891Z,1.00
2022-11-06T23:14:33.667Z,0.77
2022-11-06T23:17:01.544Z,1.10
2022-11-06T23:19:33.000Z,1.00
2022-11-06T23:22:18.816Z,1.03
2022-11-06T23:24:46.898Z,1.00
2022-11-06T23:27:14.843Z,1.23
2022-11-06T23:29:42.638Z,1.00
2022-11-06T23:32:10.513Z,0.80
2022-11-06T23:34:39.628Z,0.80
2022-11-06T23:37:07.490Z,1.13
2022-11-06T23:39:35.426Z,0.90
2022-11-06T23:42:03.285Z,0.80
2022-11-06T23:44:48.814Z,0.90
2022-11-06T23:47:16.618Z,0.73
2022-11-06T23:49:45.732Z,0.67
2022-11-06T23:52:13.577Z,0.80
2022-11-06T23:54:41.337Z,1.43
2022-11-06T23:57:09.827Z,1.10
2022-11-06T23:59:37.729Z,1.03
